sensor_id;sensor_type;location;lat;lon;timestamp;P1;durP1;ratioP1;P2;durP2;ratioP2
7929;SDS011;4010;42.698;23.124;2022-07-29T00:00:56;21.97;;;19.67;;
7929;SDS011;4010;42.698;23.124;2022-07-29T00:03:22;22.97;;;20.47;;
7929;SDS011;4010;42.698;23.124;2022-07-29T00:05:49;22.37;;;20.07;;
7929;SDS011;4010;42.698;23.124;2022-07-29T00:08:17;21.57;;;19.27;;
7929;SDS011;4010;42.698;23.124;2022-07-29T00:10:43;21.27;;;19.03;;
7929;SDS011;4010;42.698;23.124;2022-07-29T00:13:10;22.87;;;19.90;;
7929;SDS011;4010;42.698;23.124;2022-07-29T00:15:37;23.37;;;20.07;;
7929;SDS011;4010;42.698;23.124;2022-07-29T00:18:05;24.23;;;21.23;;
7929;SDS011;4010;42.698;23.124;2022-07-29T00:20:32;21.23;;;19.10;;
7929;SDS011;4010;42.698;23.124;2022-07-29T00:22:58;23.33;;;19.67;;
7929;SDS011;4010;42.698;23.124;2022-07-29T00:25:25;19.77;;;17.77;;
7929;SDS011;4010;42.698;23.124;2022-07-29T00:27:52;22.60;;;18.13;;
7929;SDS011;4010;42.698;23.124;2022-07-29T00:30:19;20.40;;;17.97;;
7929;SDS011;4010;42.698;23.124;2022-07-29T00:32:46;19.20;;;17.30;;
7929;SDS011;4010;42.698;23.124;2022-07-29T00:35:14;19.30;;;17.30;;
7929;SDS011;4010;42.698;23.124;2022-07-29T00:37:58;19.33;;;17.13;;
7929;SDS011;4010;42.698;23.124;2022-07-29T00:40:24;21.83;;;17.43;;
7929;SDS011;4010;42.698;23.124;2022-07-29T00:42:52;20.17;;;18.17;;
7929;SDS011;4010;42.698;23.124;2022-07-29T00:45:19;21.93;;;17.90;;
7929;SDS011;4010;42.698;23.124;2022-07-29T00:47:47;19.80;;;17.70;;
7929;SDS011;4010;42.698;23.124;2022-07-29T00:50:15;18.30;;;16.33;;
7929;SDS011;4010;42.698;23.124;2022-07-29T00:52:42;19.67;;;16.80;;
7929;SDS011;4010;42.698;23.124;2022-07-29T00:55:10;21.30;;;16.43;;
7929;SDS011;4010;42.698;23.124;2022-07-29T00:57:38;19.93;;;16.00;;
7929;SDS011;4010;42.698;23.124;2022-07-29T01:00:08;18.97;;;15.87;;
7929;SDS011;4010;42.698;23.124;2022-07-29T01:02:37;17.60;;;15.83;;
7929;SDS011;4010;42.698;23.124;2022-07-29T01:05:04;23.10;;;17.07;;
7929;SDS011;4010;42.698;23.124;2022-07-29T01:07:34;18.07;;;16.20;;
7929;SDS011;4010;42.698;23.124;2022-07-29T01:10:02;18.97;;;16.67;;
7929;SDS011;4010;42.698;23.124;2022-07-29T01:12:30;17.10;;;15.40;;
7929;SDS011;4010;42.698;23.124;2022-07-29T01:14:59;17.57;;;15.83;;
7929;SDS011;4010;42.698;23.124;2022-07-29T01:17:28;18.37;;;14.90;;
7929;SDS011;4010;42.698;23.124;2022-07-29T01:20:01;16.27;;;14.30;;
7929;SDS011;4010;42.698;23.124;2022-07-29T01:22:37;19.50;;;15.50;;
7929;SDS011;4010;42.698;23.124;2022-07-29T01:25:24;15.93;;;14.43;;
7929;SDS011;4010;42.698;23.124;2022-07-29T01:28:17;15.67;;;13.93;;
7929;SDS011;4010;42.698;23.124;2022-07-29T01:31:01;16.00;;;13.93;;
7929;SDS011;4010;42.698;23.124;2022-07-29T01:33:30;15.87;;;14.27;;
7929;SDS011;4010;42.698;23.124;2022-07-29T01:36:18;16.73;;;14.97;;
7929;SDS011;4010;42.698;23.124;2022-07-29T01:38:50;17.20;;;15.43;;
7929;SDS011;4010;42.698;23.124;2022-07-29T01:41:24;17.33;;;15.00;;
7929;SDS011;4010;42.698;23.124;2022-07-29T01:43:55;17.40;;;15.57;;
7929;SDS011;4010;42.698;23.124;2022-07-29T01:46:25;17.03;;;15.23;;
7929;SDS011;4010;42.698;23.124;2022-07-29T01:49:00;18.27;;;15.60;;
7929;SDS011;4010;42.698;23.124;2022-07-29T01:51:31;18.23;;;16.43;;
7929;SDS011;4010;42.698;23.124;2022-07-29T01:54:02;18.60;;;15.80;;
7929;SDS011;4010;42.698;23.124;2022-07-29T01:56:40;18.20;;;16.27;;
7929;SDS011;4010;42.698;23.124;2022-07-29T01:59:11;17.97;;;15.70;;
7929;SDS011;4010;42.698;23.124;2022-07-29T02:01:39;19.83;;;15.73;;
7929;SDS011;4010;42.698;23.124;2022-07-29T02:04:09;18.10;;;16.00;;
7929;SDS011;4010;42.698;23.124;2022-07-29T02:06:38;21.40;;;16.30;;
7929;SDS011;4010;42.698;23.124;2022-07-29T02:09:07;18.13;;;15.90;;
7929;SDS011;4010;42.698;23.124;2022-07-29T02:11:36;18.57;;;16.73;;
7929;SDS011;4010;42.698;23.124;2022-07-29T02:14:05;16.30;;;14.80;;
7929;SDS011;4010;42.698;23.124;2022-07-29T02:16:36;20.73;;;15.83;;
7929;SDS011;4010;42.698;23.124;2022-07-29T02:19:07;18.03;;;16.17;;
7929;SDS011;4010;42.698;23.124;2022-07-29T02:21:37;16.73;;;15.07;;
7929;SDS011;4010;42.698;23.124;2022-07-29T02:24:05;16.87;;;15.27;;
7929;SDS011;4010;42.698;23.124;2022-07-29T02:26:37;17.57;;;15.73;;
7929;SDS011;4010;42.698;23.124;2022-07-29T02:29:07;17.17;;;14.70;;
7929;SDS011;4010;42.698;23.124;2022-07-29T02:31:37;18.10;;;16.07;;
7929;SDS011;4010;42.698;23.124;2022-07-29T02:34:06;17.40;;;14.70;;
7929;SDS011;4010;42.698;23.124;2022-07-29T02:36:34;16.93;;;14.77;;
7929;SDS011;4010;42.698;23.124;2022-07-29T02:39:02;22.00;;;15.43;;
7929;SDS011;4010;42.698;23.124;2022-07-29T02:41:35;16.03;;;14.30;;
7929;SDS011;4010;42.698;23.124;2022-07-29T02:44:09;17.77;;;15.13;;
7929;SDS011;4010;42.698;23.124;2022-07-29T02:46:41;16.00;;;14.20;;
7929;SDS011;4010;42.698;23.124;2022-07-29T02:49:13;17.60;;;15.30;;
7929;SDS011;4010;42.698;23.124;2022-07-29T02:51:43;19.70;;;14.50;;
7929;SDS011;4010;42.698;23.124;2022-07-29T02:54:17;21.83;;;15.37;;
7929;SDS011;4010;42.698;23.124;2022-07-29T02:56:48;17.03;;;15.30;;
7929;SDS011;4010;42.698;23.124;2022-07-29T02:59:19;18.53;;;15.67;;
7929;SDS011;4010;42.698;23.124;2022-07-29T03:01:51;18.90;;;15.47;;
7929;SDS011;4010;42.698;23.124;2022-07-29T03:04:20;16.33;;;14.67;;
7929;SDS011;4010;42.698;23.124;2022-07-29T03:06:48;16.23;;;14.00;;
7929;SDS011;4010;42.698;23.124;2022-07-29T03:09:16;16.43;;;14.73;;
7929;SDS011;4010;42.698;23.124;2022-07-29T03:11:44;16.13;;;14.53;;
7929;SDS011;4010;42.698;23.124;2022-07-29T03:14:12;16.67;;;14.80;;
7929;SDS011;4010;42.698;23.124;2022-07-29T03:16:39;16.33;;;14.73;;
7929;SDS011;4010;42.698;23.124;2022-07-29T03:19:08;16.43;;;14.67;;
7929;SDS011;4010;42.698;23.124;2022-07-29T03:21:35;16.90;;;15.17;;
7929;SDS011;4010;42.698;23.124;2022-07-29T03:24:01;16.73;;;15.00;;
7929;SDS011;4010;42.698;23.124;2022-07-29T03:26:28;17.00;;;15.20;;
7929;SDS011;4010;42.698;23.124;2022-07-29T03:28:55;17.20;;;15.50;;
7929;SDS011;4010;42.698;23.124;2022-07-29T03:31:22;17.13;;;15.43;;
7929;SDS011;4010;42.698;23.124;2022-07-29T03:33:49;16.63;;;15.10;;
7929;SDS011;4010;42.698;23.124;2022-07-29T03:36:17;17.63;;;15.80;;
7929;SDS011;4010;42.698;23.124;2022-07-29T03:38:43;19.07;;;15.47;;
7929;SDS011;4010;42.698;23.124;2022-07-29T03:41:12;17.50;;;15.37;;
7929;SDS011;4010;42.698;23.124;2022-07-29T03:43:40;18.03;;;15.47;;
7929;SDS011;4010;42.698;23.124;2022-07-29T03:46:09;17.93;;;16.23;;
7929;SDS011;4010;42.698;23.124;2022-07-29T03:48:39;18.50;;;16.43;;
7929;SDS011;4010;42.698;23.124;2022-07-29T03:51:10;18.07;;;16.13;;
7929;SDS011;4010;42.698;23.124;2022-07-29T03:53:38;19.20;;;16.53;;
7929;SDS011;4010;42.698;23.124;2022-07-29T03:56:05;18.93;;;17.20;;
7929;SDS011;4010;42.698;23.124;2022-07-29T03:58:33;15.40;;;14.07;;
7929;SDS011;4010;42.698;23.124;2022-07-29T04:01:00;12.57;;;11.40;;
7929;SDS011;4010;42.698;23.124;2022-07-29T04:03:28;11.17;;;10.07;;
7929;SDS011;4010;42.698;23.124;2022-07-29T04:05:58;10.20;;;9.23;;
7929;SDS011;4010;42.698;23.124;2022-07-29T04:08:26;9.30;;;8.47;;
7929;SDS011;4010;42.698;23.124;2022-07-29T04:10:54;11.53;;;9.53;;
7929;SDS011;4010;42.698;23.124;2022-07-29T04:13:21;9.60;;;8.90;;
7929;SDS011;4010;42.698;23.124;2022-07-29T04:15:48;11.03;;;9.00;;
7929;SDS011;4010;42.698;23.124;2022-07-29T04:18:14;11.37;;;9.47;;
7929;SDS011;4010;42.698;23.124;2022-07-29T04:20:41;10.50;;;9.33;;
7929;SDS011;4010;42.698;23.124;2022-07-29T04:23:08;10.07;;;9.03;;
7929;SDS011;4010;42.698;23.124;2022-07-29T04:25:36;11.47;;;10.30;;
7929;SDS011;4010;42.698;23.124;2022-07-29T04:28:05;11.53;;;10.37;;
7929;SDS011;4010;42.698;23.124;2022-07-29T04:30:33;11.50;;;10.47;;
7929;SDS011;4010;42.698;23.124;2022-07-29T04:33:00;11.00;;;9.63;;
7929;SDS011;4010;42.698;23.124;2022-07-29T04:35:28;10.93;;;9.77;;
7929;SDS011;4010;42.698;23.124;2022-07-29T04:37:55;13.17;;;9.90;;
7929;SDS011;4010;42.698;23.124;2022-07-29T04:40:21;11.17;;;10.03;;
7929;SDS011;4010;42.698;23.124;2022-07-29T04:42:48;10.37;;;9.50;;
7929;SDS011;4010;42.698;23.124;2022-07-29T04:45:16;11.83;;;10.73;;
7929;SDS011;4010;42.698;23.124;2022-07-29T04:47:43;10.90;;;9.83;;
7929;SDS011;4010;42.698;23.124;2022-07-29T04:50:10;10.97;;;9.93;;
7929;SDS011;4010;42.698;23.124;2022-07-29T04:52:37;13.77;;;10.50;;
7929;SDS011;4010;42.698;23.124;2022-07-29T04:55:04;12.80;;;10.73;;
7929;SDS011;4010;42.698;23.124;2022-07-29T04:57:32;12.80;;;11.67;;
7929;SDS011;4010;42.698;23.124;2022-07-29T04:59:58;12.17;;;10.80;;
7929;SDS011;4010;42.698;23.124;2022-07-29T05:02:27;12.50;;;11.50;;
7929;SDS011;4010;42.698;23.124;2022-07-29T05:04:53;12.47;;;11.27;;
7929;SDS011;4010;42.698;23.124;2022-07-29T05:07:20;12.73;;;11.63;;
7929;SDS011;4010;42.698;23.124;2022-07-29T05:09:47;12.97;;;11.00;;
7929;SDS011;4010;42.698;23.124;2022-07-29T05:12:14;11.67;;;10.40;;
7929;SDS011;4010;42.698;23.124;2022-07-29T05:14:40;10.90;;;9.90;;
7929;SDS011;4010;42.698;23.124;2022-07-29T05:17:07;10.30;;;9.40;;
7929;SDS011;4010;42.698;23.124;2022-07-29T05:19:35;9.70;;;8.70;;
7929;SDS011;4010;42.698;23.124;2022-07-29T05:22:02;11.77;;;10.77;;
7929;SDS011;4010;42.698;23.124;2022-07-29T05:24:29;12.17;;;10.33;;
7929;SDS011;4010;42.698;23.124;2022-07-29T05:26:55;11.30;;;10.27;;
7929;SDS011;4010;42.698;23.124;2022-07-29T05:29:22;12.73;;;11.73;;
7929;SDS011;4010;42.698;23.124;2022-07-29T05:31:49;11.57;;;10.47;;
7929;SDS011;4010;42.698;23.124;2022-07-29T05:34:17;12.50;;;11.60;;
7929;SDS011;4010;42.698;23.124;2022-07-29T05:36:46;12.83;;;11.73;;
7929;SDS011;4010;42.698;23.124;2022-07-29T05:39:12;13.37;;;12.37;;
7929;SDS011;4010;42.698;23.124;2022-07-29T05:41:39;13.83;;;12.63;;
7929;SDS011;4010;42.698;23.124;2022-07-29T05:44:06;13.53;;;12.30;;
7929;SDS011;4010;42.698;23.124;2022-07-29T05:46:33;14.13;;;12.87;;
7929;SDS011;4010;42.698;23.124;2022-07-29T05:48:59;13.33;;;12.33;;
7929;SDS011;4010;42.698;23.124;2022-07-29T05:51:27;13.37;;;12.27;;
7929;SDS011;4010;42.698;23.124;2022-07-29T05:53:56;13.67;;;12.67;;
7929;SDS011;4010;42.698;23.124;2022-07-29T05:56:23;12.97;;;11.93;;
7929;SDS011;4010;42.698;23.124;2022-07-29T05:58:50;12.40;;;11.20;;
7929;SDS011;4010;42.698;23.124;2022-07-29T06:01:16;12.57;;;11.43;;
7929;SDS011;4010;42.698;23.124;2022-07-29T06:03:43;12.07;;;11.17;;
7929;SDS011;4010;42.698;23.124;2022-07-29T06:06:10;12.70;;;11.70;;
7929;SDS011;4010;42.698;23.124;2022-07-29T06:08:37;12.90;;;11.87;;
7929;SDS011;4010;42.698;23.124;2022-07-29T06:11:05;12.90;;;11.90;;
7929;SDS011;4010;42.698;23.124;2022-07-29T06:13:32;14.50;;;13.03;;
7929;SDS011;4010;42.698;23.124;2022-07-29T06:15:59;12.47;;;11.47;;
7929;SDS011;4010;42.698;23.124;2022-07-29T06:18:26;12.63;;;11.63;;
7929;SDS011;4010;42.698;23.124;2022-07-29T06:20:53;12.33;;;11.33;;
7929;SDS011;4010;42.698;23.124;2022-07-29T06:23:20;12.20;;;11.17;;
7929;SDS011;4010;42.698;23.124;2022-07-29T06:25:47;12.50;;;11.17;;
7929;SDS011;4010;42.698;23.124;2022-07-29T06:28:15;11.30;;;10.30;;
7929;SDS011;4010;42.698;23.124;2022-07-29T06:30:41;11.50;;;10.40;;
7929;SDS011;4010;42.698;23.124;2022-07-29T06:33:08;11.63;;;10.73;;
7929;SDS011;4010;42.698;23.124;2022-07-29T06:35:35;12.47;;;11.27;;
7929;SDS011;4010;42.698;23.124;2022-07-29T06:38:04;11.43;;;10.60;;
7929;SDS011;4010;42.698;23.124;2022-07-29T06:40:31;11.57;;;10.57;;
7929;SDS011;4010;42.698;23.124;2022-07-29T06:43:16;12.82;;;11.68;;
7929;SDS011;4010;42.698;23.124;2022-07-29T06:45:43;11.67;;;10.67;;
7929;SDS011;4010;42.698;23.124;2022-07-29T06:48:10;10.90;;;9.90;;
7929;SDS011;4010;42.698;23.124;2022-07-29T06:50:36;10.53;;;9.77;;
7929;SDS011;4010;42.698;23.124;2022-07-29T06:53:04;12.20;;;11.03;;
7929;SDS011;4010;42.698;23.124;2022-07-29T06:55:31;11.33;;;10.33;;
7929;SDS011;4010;42.698;23.124;2022-07-29T06:57:59;11.20;;;10.07;;
7929;SDS011;4010;42.698;23.124;2022-07-29T07:00:30;12.07;;;11.03;;
7929;SDS011;4010;42.698;23.124;2022-07-29T07:02:57;11.73;;;10.60;;
7929;SDS011;4010;42.698;23.124;2022-07-29T07:05:24;12.37;;;11.20;;
7929;SDS011;4010;42.698;23.124;2022-07-29T07:07:51;11.47;;;10.47;;
7929;SDS011;4010;42.698;23.124;2022-07-29T07:10:17;12.57;;;11.47;;
7929;SDS011;4010;42.698;23.124;2022-07-29T07:12:44;12.40;;;11.33;;
7929;SDS011;4010;42.698;23.124;2022-07-29T07:15:11;12.57;;;11.30;;
7929;SDS011;4010;42.698;23.124;2022-07-29T07:17:39;12.97;;;11.60;;
7929;SDS011;4010;42.698;23.124;2022-07-29T07:20:06;13.17;;;11.50;;
7929;SDS011;4010;42.698;23.124;2022-07-29T07:22:33;13.10;;;11.90;;
7929;SDS011;4010;42.698;23.124;2022-07-29T07:25:00;13.43;;;12.20;;
7929;SDS011;4010;42.698;23.124;2022-07-29T07:27:27;12.80;;;11.60;;
7929;SDS011;4010;42.698;23.124;2022-07-29T07:29:54;12.97;;;11.83;;
7929;SDS011;4010;42.698;23.124;2022-07-29T07:32:21;13.47;;;12.30;;
7929;SDS011;4010;42.698;23.124;2022-07-29T07:34:49;13.17;;;11.50;;
7929;SDS011;4010;42.698;23.124;2022-07-29T07:37:16;13.20;;;12.10;;
7929;SDS011;4010;42.698;23.124;2022-07-29T07:39:44;12.37;;;11.37;;
7929;SDS011;4010;42.698;23.124;2022-07-29T07:42:11;12.67;;;10.47;;
7929;SDS011;4010;42.698;23.124;2022-07-29T07:44:38;10.73;;;9.73;;
7929;SDS011;4010;42.698;23.124;2022-07-29T07:47:05;11.17;;;9.97;;
7929;SDS011;4010;42.698;23.124;2022-07-29T07:49:31;10.90;;;9.97;;
7929;SDS011;4010;42.698;23.124;2022-07-29T07:52:00;10.93;;;9.90;;
7929;SDS011;4010;42.698;23.124;2022-07-29T07:54:26;10.50;;;9.37;;
7929;SDS011;4010;42.698;23.124;2022-07-29T07:56:53;10.67;;;9.07;;
7929;SDS011;4010;42.698;23.124;2022-07-29T07:59:20;9.40;;;8.57;;
7929;SDS011;4010;42.698;23.124;2022-07-29T08:01:47;10.53;;;9.53;;
7929;SDS011;4010;42.698;23.124;2022-07-29T08:04:13;9.50;;;8.60;;
7929;SDS011;4010;42.698;23.124;2022-07-29T08:06:40;9.70;;;8.90;;
7929;SDS011;4010;42.698;23.124;2022-07-29T08:09:08;9.53;;;8.60;;
7929;SDS011;4010;42.698;23.124;2022-07-29T08:11:35;9.03;;;8.27;;
7929;SDS011;4010;42.698;23.124;2022-07-29T08:14:02;10.10;;;9.07;;
7929;SDS011;4010;42.698;23.124;2022-07-29T08:16:28;8.77;;;7.87;;
7929;SDS011;4010;42.698;23.124;2022-07-29T08:18:55;10.23;;;9.30;;
7929;SDS011;4010;42.698;23.124;2022-07-29T08:21:23;9.23;;;8.33;;
7929;SDS011;4010;42.698;23.124;2022-07-29T08:23:50;9.23;;;8.40;;
7929;SDS011;4010;42.698;23.124;2022-07-29T08:26:39;9.57;;;8.60;;
7929;SDS011;4010;42.698;23.124;2022-07-29T08:29:06;9.63;;;7.50;;
7929;SDS011;4010;42.698;23.124;2022-07-29T08:31:34;8.10;;;7.30;;
7929;SDS011;4010;42.698;23.124;2022-07-29T08:34:01;8.47;;;7.70;;
7929;SDS011;4010;42.698;23.124;2022-07-29T08:36:28;20.20;;;8.67;;
7929;SDS011;4010;42.698;23.124;2022-07-29T08:38:55;8.00;;;7.20;;
7929;SDS011;4010;42.698;23.124;2022-07-29T08:41:22;8.10;;;7.33;;
7929;SDS011;4010;42.698;23.124;2022-07-29T08:43:50;8.17;;;7.33;;
7929;SDS011;4010;42.698;23.124;2022-07-29T08:46:18;9.17;;;8.13;;
7929;SDS011;4010;42.698;23.124;2022-07-29T08:48:45;8.37;;;7.53;;
7929;SDS011;4010;42.698;23.124;2022-07-29T08:51:13;14.50;;;7.43;;
7929;SDS011;4010;42.698;23.124;2022-07-29T08:53:41;9.00;;;7.40;;
7929;SDS011;4010;42.698;23.124;2022-07-29T08:56:10;8.93;;;6.97;;
7929;SDS011;4010;42.698;23.124;2022-07-29T08:58:38;9.47;;;7.33;;
7929;SDS011;4010;42.698;23.124;2022-07-29T09:01:07;10.53;;;7.07;;
7929;SDS011;4010;42.698;23.124;2022-07-29T09:03:35;8.30;;;7.50;;
7929;SDS011;4010;42.698;23.124;2022-07-29T09:06:04;24.63;;;7.87;;
7929;SDS011;4010;42.698;23.124;2022-07-29T09:08:32;7.27;;;6.60;;
7929;SDS011;4010;42.698;23.124;2022-07-29T09:11:00;22.10;;;7.53;;
7929;SDS011;4010;42.698;23.124;2022-07-29T09:13:28;9.50;;;7.17;;
7929;SDS011;4010;42.698;23.124;2022-07-29T09:15:55;11.67;;;7.83;;
7929;SDS011;4010;42.698;23.124;2022-07-29T09:18:34;78.67;;;13.20;;
7929;SDS011;4010;42.698;23.124;2022-07-29T09:21:02;7.27;;;6.57;;
7929;SDS011;4010;42.698;23.124;2022-07-29T09:24:00;7.80;;;6.93;;
7929;SDS011;4010;42.698;23.124;2022-07-29T09:26:29;7.53;;;6.87;;
7929;SDS011;4010;42.698;23.124;2022-07-29T09:28:57;12.03;;;6.47;;
7929;SDS011;4010;42.698;23.124;2022-07-29T09:31:32;7.63;;;6.37;;
7929;SDS011;4010;42.698;23.124;2022-07-29T09:34:02;6.80;;;6.20;;
7929;SDS011;4010;42.698;23.124;2022-07-29T09:36:29;6.30;;;5.70;;
7929;SDS011;4010;42.698;23.124;2022-07-29T09:38:57;7.17;;;6.60;;
7929;SDS011;4010;42.698;23.124;2022-07-29T09:41:25;6.70;;;6.20;;
7929;SDS011;4010;42.698;23.124;2022-07-29T09:43:55;6.70;;;6.13;;
7929;SDS011;4010;42.698;23.124;2022-07-29T09:46:23;6.30;;;5.80;;
7929;SDS011;4010;42.698;23.124;2022-07-29T09:49:07;6.77;;;6.07;;
7929;SDS011;4010;42.698;23.124;2022-07-29T09:51:34;6.23;;;5.67;;
7929;SDS011;4010;42.698;23.124;2022-07-29T09:54:01;6.40;;;5.80;;
7929;SDS011;4010;42.698;23.124;2022-07-29T09:56:39;8.27;;;6.30;;
7929;SDS011;4010;42.698;23.124;2022-07-29T09:59:07;7.47;;;6.83;;
7929;SDS011;4010;42.698;23.124;2022-07-29T10:01:34;6.93;;;6.23;;
7929;SDS011;4010;42.698;23.124;2022-07-29T10:04:01;6.43;;;5.90;;
7929;SDS011;4010;42.698;23.124;2022-07-29T10:06:30;6.97;;;6.40;;
7929;SDS011;4010;42.698;23.124;2022-07-29T10:09:06;5.80;;;5.40;;
7929;SDS011;4010;42.698;23.124;2022-07-29T10:11:34;6.13;;;5.63;;
7929;SDS011;4010;42.698;23.124;2022-07-29T10:14:01;6.30;;;5.90;;
7929;SDS011;4010;42.698;23.124;2022-07-29T10:16:29;8.63;;;6.17;;
7929;SDS011;4010;42.698;23.124;2022-07-29T10:18:58;6.40;;;5.73;;
7929;SDS011;4010;42.698;23.124;2022-07-29T10:21:26;6.40;;;5.90;;
7929;SDS011;4010;42.698;23.124;2022-07-29T10:23:54;6.60;;;6.10;;
7929;SDS011;4010;42.698;23.124;2022-07-29T10:26:23;6.27;;;5.77;;
7929;SDS011;4010;42.698;23.124;2022-07-29T10:28:50;6.73;;;6.23;;
7929;SDS011;4010;42.698;23.124;2022-07-29T10:31:19;6.33;;;5.83;;
7929;SDS011;4010;42.698;23.124;2022-07-29T10:33:52;6.27;;;5.77;;
7929;SDS011;4010;42.698;23.124;2022-07-29T10:36:32;5.50;;;5.10;;
7929;SDS011;4010;42.698;23.124;2022-07-29T10:39:15;5.87;;;5.47;;
7929;SDS011;4010;42.698;23.124;2022-07-29T10:44:43;6.10;;;5.60;;
7929;SDS011;4010;42.698;23.124;2022-07-29T10:47:19;6.23;;;5.73;;
7929;SDS011;4010;42.698;23.124;2022-07-29T10:49:54;6.27;;;5.67;;
7929;SDS011;4010;42.698;23.124;2022-07-29T10:52:23;6.50;;;5.90;;
7929;SDS011;4010;42.698;23.124;2022-07-29T10:54:54;6.63;;;6.03;;
7929;SDS011;4010;42.698;23.124;2022-07-29T10:57:27;9.30;;;6.33;;
7929;SDS011;4010;42.698;23.124;2022-07-29T11:02:57;6.47;;;5.87;;
7929;SDS011;4010;42.698;23.124;2022-07-29T11:05:26;7.00;;;6.40;;
7929;SDS011;4010;42.698;23.124;2022-07-29T11:10:50;8.63;;;6.63;;
7929;SDS011;4010;42.698;23.124;2022-07-29T11:16:15;6.43;;;5.93;;
7929;SDS011;4010;42.698;23.124;2022-07-29T11:21:51;7.60;;;6.70;;
7929;SDS011;4010;42.698;23.124;2022-07-29T11:24:19;7.10;;;6.60;;
7929;SDS011;4010;42.698;23.124;2022-07-29T11:29:41;7.43;;;6.30;;
7929;SDS011;4010;42.698;23.124;2022-07-29T11:32:16;7.27;;;6.77;;
7929;SDS011;4010;42.698;23.124;2022-07-29T11:34:44;7.93;;;7.23;;
7929;SDS011;4010;42.698;23.124;2022-07-29T11:37:19;7.07;;;6.43;;
7929;SDS011;4010;42.698;23.124;2022-07-29T11:42:51;7.60;;;6.90;;
7929;SDS011;4010;42.698;23.124;2022-07-29T11:45:24;8.13;;;7.33;;
7929;SDS011;4010;42.698;23.124;2022-07-29T11:47:58;7.37;;;6.77;;
7929;SDS011;4010;42.698;23.124;2022-07-29T11:50:35;7.47;;;6.83;;
7929;SDS011;4010;42.698;23.124;2022-07-29T11:53:03;8.30;;;6.93;;
7929;SDS011;4010;42.698;23.124;2022-07-29T11:55:38;6.80;;;6.30;;
7929;SDS011;4010;42.698;23.124;2022-07-29T11:58:07;7.37;;;6.67;;
7929;SDS011;4010;42.698;23.124;2022-07-29T12:00:35;7.13;;;6.63;;
7929;SDS011;4010;42.698;23.124;2022-07-29T12:03:04;7.07;;;6.53;;
7929;SDS011;4010;42.698;23.124;2022-07-29T12:05:33;7.67;;;6.87;;
7929;SDS011;4010;42.698;23.124;2022-07-29T12:08:05;7.57;;;6.97;;
7929;SDS011;4010;42.698;23.124;2022-07-29T12:10:37;6.73;;;6.23;;
7929;SDS011;4010;42.698;23.124;2022-07-29T12:13:04;7.53;;;7.00;;
7929;SDS011;4010;42.698;23.124;2022-07-29T12:15:33;7.50;;;6.90;;
7929;SDS011;4010;42.698;23.124;2022-07-29T12:18:09;7.77;;;6.57;;
7929;SDS011;4010;42.698;23.124;2022-07-29T12:20:36;7.70;;;7.00;;
7929;SDS011;4010;42.698;23.124;2022-07-29T12:23:04;7.67;;;6.93;;
7929;SDS011;4010;42.698;23.124;2022-07-29T12:25:33;6.97;;;6.43;;
7929;SDS011;4010;42.698;23.124;2022-07-29T12:28:07;6.97;;;6.37;;
7929;SDS011;4010;42.698;23.124;2022-07-29T12:31:04;7.40;;;6.90;;
7929;SDS011;4010;42.698;23.124;2022-07-29T12:33:31;7.50;;;6.90;;
7929;SDS011;4010;42.698;23.124;2022-07-29T12:36:00;7.57;;;6.97;;
7929;SDS011;4010;42.698;23.124;2022-07-29T12:38:28;7.03;;;6.53;;
7929;SDS011;4010;42.698;23.124;2022-07-29T12:40:55;7.30;;;6.80;;
7929;SDS011;4010;42.698;23.124;2022-07-29T12:43:22;7.53;;;6.83;;
7929;SDS011;4010;42.698;23.124;2022-07-29T12:45:51;7.00;;;6.40;;
7929;SDS011;4010;42.698;23.124;2022-07-29T12:48:33;7.53;;;6.90;;
7929;SDS011;4010;42.698;23.124;2022-07-29T12:51:00;7.47;;;6.90;;
7929;SDS011;4010;42.698;23.124;2022-07-29T12:53:29;7.60;;;7.00;;
7929;SDS011;4010;42.698;23.124;2022-07-29T12:55:57;8.07;;;7.27;;
7929;SDS011;4010;42.698;23.124;2022-07-29T12:58:27;7.73;;;7.13;;
7929;SDS011;4010;42.698;23.124;2022-07-29T13:01:06;7.97;;;7.37;;
7929;SDS011;4010;42.698;23.124;2022-07-29T13:03:48;7.33;;;6.67;;
7929;SDS011;4010;42.698;23.124;2022-07-29T13:06:34;7.00;;;6.50;;
7929;SDS011;4010;42.698;23.124;2022-07-29T13:09:06;7.13;;;6.53;;
7929;SDS011;4010;42.698;23.124;2022-07-29T13:11:36;7.30;;;6.60;;
7929;SDS011;4010;42.698;23.124;2022-07-29T13:14:07;7.70;;;7.10;;
7929;SDS011;4010;42.698;23.124;2022-07-29T13:16:35;8.73;;;8.03;;
7929;SDS011;4010;42.698;23.124;2022-07-29T13:19:08;8.17;;;7.57;;
7929;SDS011;4010;42.698;23.124;2022-07-29T13:21:36;7.90;;;7.30;;
7929;SDS011;4010;42.698;23.124;2022-07-29T13:24:05;9.07;;;8.37;;
7929;SDS011;4010;42.698;23.124;2022-07-29T13:26:32;8.10;;;7.50;;
7929;SDS011;4010;42.698;23.124;2022-07-29T13:28:59;8.27;;;7.67;;
7929;SDS011;4010;42.698;23.124;2022-07-29T13:31:26;8.70;;;8.00;;
7929;SDS011;4010;42.698;23.124;2022-07-29T13:33:53;8.77;;;8.10;;
7929;SDS011;4010;42.698;23.124;2022-07-29T13:36:21;8.43;;;7.63;;
7929;SDS011;4010;42.698;23.124;2022-07-29T13:38:48;7.93;;;7.40;;
7929;SDS011;4010;42.698;23.124;2022-07-29T13:41:15;8.63;;;7.93;;
7929;SDS011;4010;42.698;23.124;2022-07-29T13:43:42;7.47;;;6.97;;
7929;SDS011;4010;42.698;23.124;2022-07-29T13:46:08;7.10;;;6.60;;
7929;SDS011;4010;42.698;23.124;2022-07-29T13:48:35;8.30;;;7.50;;
7929;SDS011;4010;42.698;23.124;2022-07-29T13:51:02;8.10;;;7.50;;
7929;SDS011;4010;42.698;23.124;2022-07-29T13:53:30;7.57;;;7.07;;
7929;SDS011;4010;42.698;23.124;2022-07-29T13:55:57;7.63;;;7.13;;
7929;SDS011;4010;42.698;23.124;2022-07-29T13:58:24;7.60;;;6.90;;
7929;SDS011;4010;42.698;23.124;2022-07-29T14:00:51;8.60;;;8.00;;
7929;SDS011;4010;42.698;23.124;2022-07-29T14:03:18;8.80;;;8.07;;
7929;SDS011;4010;42.698;23.124;2022-07-29T14:05:58;7.40;;;6.80;;
7929;SDS011;4010;42.698;23.124;2022-07-29T14:08:26;7.90;;;7.37;;
7929;SDS011;4010;42.698;23.124;2022-07-29T14:10:54;7.67;;;7.17;;
7929;SDS011;4010;42.698;23.124;2022-07-29T14:13:21;7.73;;;7.13;;
7929;SDS011;4010;42.698;23.124;2022-07-29T14:15:47;7.40;;;6.90;;
7929;SDS011;4010;42.698;23.124;2022-07-29T14:18:23;7.87;;;7.17;;
7929;SDS011;4010;42.698;23.124;2022-07-29T14:20:50;7.73;;;7.13;;
7929;SDS011;4010;42.698;23.124;2022-07-29T14:23:17;8.37;;;7.77;;
7929;SDS011;4010;42.698;23.124;2022-07-29T14:25:43;8.10;;;7.40;;
7929;SDS011;4010;42.698;23.124;2022-07-29T14:28:11;8.50;;;7.90;;
7929;SDS011;4010;42.698;23.124;2022-07-29T14:30:38;7.97;;;7.37;;
7929;SDS011;4010;42.698;23.124;2022-07-29T14:33:06;7.93;;;7.33;;
7929;SDS011;4010;42.698;23.124;2022-07-29T14:35:33;7.77;;;7.17;;
7929;SDS011;4010;42.698;23.124;2022-07-29T14:38:00;7.87;;;7.10;;
7929;SDS011;4010;42.698;23.124;2022-07-29T14:40:27;6.93;;;6.43;;
7929;SDS011;4010;42.698;23.124;2022-07-29T14:42:53;7.22;;;6.72;;
7929;SDS011;4010;42.698;23.124;2022-07-29T14:45:21;9.47;;;7.03;;
7929;SDS011;4010;42.698;23.124;2022-07-29T14:47:48;7.17;;;6.60;;
7929;SDS011;4010;42.698;23.124;2022-07-29T14:50:15;7.63;;;7.03;;
7929;SDS011;4010;42.698;23.124;2022-07-29T14:52:43;7.57;;;6.93;;
7929;SDS011;4010;42.698;23.124;2022-07-29T14:55:10;6.83;;;6.43;;
7929;SDS011;4010;42.698;23.124;2022-07-29T14:57:36;7.20;;;6.57;;
7929;SDS011;4010;42.698;23.124;2022-07-29T15:00:04;7.13;;;6.57;;
7929;SDS011;4010;42.698;23.124;2022-07-29T15:02:33;6.93;;;6.27;;
7929;SDS011;4010;42.698;23.124;2022-07-29T15:05:00;7.20;;;6.60;;
7929;SDS011;4010;42.698;23.124;2022-07-29T15:07:27;7.43;;;6.73;;
7929;SDS011;4010;42.698;23.124;2022-07-29T15:09:53;7.20;;;6.70;;
7929;SDS011;4010;42.698;23.124;2022-07-29T15:12:20;7.67;;;6.97;;
7929;SDS011;4010;42.698;23.124;2022-07-29T15:14:47;7.47;;;6.90;;
7929;SDS011;4010;42.698;23.124;2022-07-29T15:17:13;7.57;;;6.97;;
7929;SDS011;4010;42.698;23.124;2022-07-29T15:19:41;7.47;;;6.83;;